createdAt,value
2022-10-17T00:00:07.776Z,101012.06
2022-10-17T00:00:40.013Z,101010.59
2022-10-17T00:01:13.178Z,101011.25
2022-10-17T00:01:45.163Z,101015.12
2022-10-17T00:02:17.095Z,101005.56
2022-10-17T00:02:49.042Z,101013.88
2022-10-17T00:03:20.891Z,101012.53
2022-10-17T00:03:52.805Z,101007.19
2022-10-17T00:04:24.723Z,101006.94
2022-10-17T00:04:56.618Z,101011.72
2022-10-17T00:05:28.796Z,101008.75
2022-10-17T00:06:06.004Z,101011.16
2022-10-17T00:06:38.148Z,101009.91
2022-10-17T00:07:10.085Z,101012.06
2022-10-17T00:07:42.029Z,101009.09
2022-10-17T00:08:16.603Z,101018.94
2022-10-17T00:08:48.485Z,101012.25
2022-10-17T00:09:20.401Z,101016.22
2022-10-17T00:09:52.292Z,101017.75
2022-10-17T00:10:24.539Z,101019.56
2022-10-17T00:11:03.552Z,101021.19
2022-10-17T00:11:35.641Z,101017.56
2022-10-17T00:12:07.761Z,101021.19
2022-10-17T00:12:39.619Z,101016.13
2022-10-17T00:13:12.092Z,101016.37
2022-10-17T00:13:44.780Z,101015.22
2022-10-17T00:14:16.717Z,101016.59
2022-10-17T00:14:48.594Z,101017.03
2022-10-17T00:15:21.721Z,101012.69
2022-10-17T00:15:54.051Z,101016.22
2022-10-17T00:16:32.553Z,101016.94
2022-10-17T00:17:04.456Z,101009.09
2022-10-17T00:17:38.374Z,101019.84
2022-10-17T00:18:10.269Z,101022.53
2022-10-17T00:18:42.127Z,101015.94
2022-10-17T00:19:13.976Z,101016.59
2022-10-17T00:19:45.943Z,101012.69
2022-10-17T00:20:17.966Z,101014.03
2022-10-17T00:20:49.874Z,101020.28
2022-10-17T00:21:22.642Z,101016.13
2022-10-17T00:21:54.464Z,101024.16
2022-10-17T00:22:27.564Z,101016.59
2022-10-17T00:23:00.592Z,101014.13
2022-10-17T00:23:33.914Z,101016.75
2022-10-17T00:24:06.059Z,101012.53
2022-10-17T00:24:37.938Z,101014.59
2022-10-17T00:25:10.332Z,101017.91
2022-10-17T00:25:42.357Z,101012.94
2022-10-17T00:26:15.582Z,101014.50
2022-10-17T00:26:47.485Z,101012.50
2022-10-17T00:27:19.596Z,101019.19
2022-10-17T00:27:51.480Z,101019.81
2022-10-17T00:28:23.694Z,101018.38
2022-10-17T00:28:56.118Z,101024.22
2022-10-17T00:29:27.997Z,101014.94
2022-10-17T00:29:59.847Z,101019.00
2022-10-17T00:30:32.865Z,101018.72
2022-10-17T00:31:06.685Z,101019.81
2022-10-17T00:31:38.552Z,101023.13
2022-10-17T00:32:10.411Z,101020.72
2022-10-17T00:32:42.526Z,101018.72
2022-10-17T00:33:14.376Z,101015.41
2022-10-17T00:33:47.155Z,101013.97
2022-10-17T00:34:20.526Z,101015.75
2022-10-17T00:34:52.337Z,101013.06
2022-10-17T00:35:24.184Z,101017.56
2022-10-17T00:36:07.623Z,101011.25
2022-10-17T00:36:40.088Z,101016.22
2022-10-17T00:37:13.008Z,101013.06
2022-10-17T00:37:44.841Z,101022.19
2022-10-17T00:38:16.736Z,101008.62
2022-10-17T00:38:53.403Z,101015.31
2022-10-17T00:39:25.390Z,101021.16
2022-10-17T00:39:57.256Z,101016.94
2022-10-17T00:40:29.102Z,101018.28
2022-10-17T00:41:00.952Z,101018.91
2022-10-17T00:41:33.702Z,101019.47
2022-10-17T00:42:06.363Z,101015.31
2022-10-17T00:42:38.489Z,101026.09
2022-10-17T00:43:17.830Z,101016.37
2022-10-17T00:44:01.607Z,101022.53
2022-10-17T00:44:33.385Z,101024.25
2022-10-17T00:45:08.505Z,101016.69
2022-10-17T00:45:40.480Z,101020.09
2022-10-17T00:46:12.370Z,101022.53
2022-10-17T00:46:44.995Z,101018.28
2022-10-17T00:47:21.100Z,101014.97
2022-10-17T00:48:06.533Z,101023.06
2022-10-17T00:48:38.519Z,101020.37
2022-10-17T00:49:12.627Z,101018.12
2022-10-17T00:49:44.662Z,101020.63
2022-10-17T00:50:17.137Z,101012.87
2022-10-17T00:50:50.080Z,101017.38
2022-10-17T00:51:29.610Z,101016.69
2022-10-17T00:52:08.494Z,101014.97
2022-10-17T00:52:41.112Z,101013.41
2022-10-17T00:53:13.637Z,101016.19
2022-10-17T00:53:45.849Z,101008.28
2022-10-17T00:54:23.218Z,101013.88
2022-10-17T00:55:00.089Z,101010.72
2022-10-17T00:55:34.810Z,101021.44
2022-10-17T00:56:07.455Z,101017.84
2022-10-17T00:56:40.529Z,101016.31
2022-10-17T00:57:12.892Z,101011.53
2022-10-17T00:57:46.302Z,101014.59
2022-10-17T00:58:19.039Z,101005.59
2022-10-17T00:58:50.968Z,101011.78
2022-10-17T00:59:24.811Z,101010.25
2022-10-17T00:59:58.343Z,101011.09
2022-10-17T01:00:30.906Z,101009.38
2022-10-17T01:01:03.727Z,101013.88
2022-10-17T01:01:36.126Z,101011.44
2022-10-17T01:02:15.448Z,101012.94
2022-10-17T01:02:47.574Z,101010.28
2022-10-17T01:03:22.049Z,101012.69
2022-10-17T01:03:53.921Z,101010.72
2022-10-17T01:04:26.247Z,101016.19
2022-10-17T01:04:59.567Z,101011.72
2022-10-17T01:05:31.520Z,101009.28
2022-10-17T01:06:03.574Z,101009.00
2022-10-17T01:06:35.436Z,101013.34
2022-10-17T01:07:07.456Z,101016.75
2022-10-17T01:07:41.783Z,101014.94
2022-10-17T01:08:14.154Z,101022.88
2022-10-17T01:08:46.372Z,101008.28
2022-10-17T01:09:18.597Z,101018.03
2022-10-17T01:09:51.049Z,101016.31
2022-10-17T01:10:29.866Z,101010.06
2022-10-17T01:11:14.139Z,101013.56
2022-10-17T01:11:53.622Z,101012.87
2022-10-17T01:12:35.178Z,101007.72
2022-10-17T01:13:13.632Z,101009.78
2022-10-17T01:13:53.367Z,101014.81
2022-10-17T01:14:42.802Z,101007.34
2022-10-17T01:15:32.981Z,101011.47
2022-10-17T01:16:18.728Z,101008.00
2022-10-17T01:17:19.508Z,101011.06
2022-10-17T01:18:14.819Z,101013.84
2022-10-17T01:18:59.699Z,101007.34
2022-10-17T01:19:57.929Z,101010.97
2022-10-17T01:20:38.768Z,101010.63
2022-10-17T01:21:36.677Z,101011.16
2022-10-17T01:22:17.497Z,101009.25
2022-10-17T01:23:11.055Z,101009.91
2022-10-17T01:24:04.611Z,101008.09
2022-10-17T01:25:05.093Z,101011.78
2022-10-17T01:25:56.184Z,101011.78
2022-10-17T01:26:52.477Z,101004.13
2022-10-17T01:27:42.777Z,101011.09
2022-10-17T01:29:31.841Z,101010.72
2022-10-17T01:30:26.264Z,101010.63
2022-10-17T01:31:16.008Z,101008.81
2022-10-17T01:31:51.235Z,101010.72
2022-10-17T01:32:37.260Z,101014.25
2022-10-17T01:33:31.309Z,101008.09
2022-10-17T01:34:12.833Z,101009.09
2022-10-17T01:35:01.616Z,101010.00
2022-10-17T01:35:42.312Z,101013.69
2022-10-17T01:36:23.163Z,101006.13
2022-10-17T01:36:58.155Z,101007.84
2022-10-17T01:37:37.916Z,101011.78
2022-10-17T01:38:14.690Z,101016.84
2022-10-17T01:38:51.689Z,101013.59
2022-10-17T01:39:45.635Z,101009.63
2022-10-17T01:40:27.842Z,101009.00
2022-10-17T01:41:07.695Z,101007.78
2022-10-17T01:42:02.287Z,101013.16
2022-10-17T01:42:42.429Z,101013.09
2022-10-17T01:43:34.819Z,101015.47
2022-10-17T01:44:19.678Z,101011.78
2022-10-17T01:45:03.862Z,101015.19
2022-10-17T01:45:50.712Z,101019.41
2022-10-17T01:46:30.206Z,101013.37
2022-10-17T01:47:13.612Z,101013.78
2022-10-17T01:47:47.870Z,101017.56
2022-10-17T01:48:25.751Z,101011.47
2022-10-17T01:49:01.791Z,101010.59
2022-10-17T01:49:37.566Z,101010.59
2022-10-17T01:50:17.038Z,101017.56
2022-10-17T01:50:53.715Z,101010.97
2022-10-17T01:51:33.345Z,101016.41
2022-10-17T01:52:11.684Z,101010.34
2022-10-17T01:52:50.759Z,101015.50
2022-10-17T01:53:38.728Z,101015.91
2022-10-17T01:54:23.785Z,101010.78
2022-10-17T01:55:26.284Z,101013.13
2022-10-17T01:56:03.078Z,101017.06
2022-10-17T01:56:36.584Z,101012.56
2022-10-17T01:57:14.115Z,101020.97
2022-10-17T01:57:57.861Z,101022.06
2022-10-17T01:58:38.340Z,101021.34
2022-10-17T01:59:22.425Z,101016.31
2022-10-17T01:59:56.588Z,101022.34
2022-10-17T02:00:30.056Z,101018.44
2022-10-17T02:01:06.319Z,101017.09
2022-10-17T02:01:41.563Z,101013.22
2022-10-17T02:02:15.135Z,101013.78
2022-10-17T02:02:49.987Z,101010.03
2022-10-17T02:03:24.355Z,101018.72
2022-10-17T02:03:58.018Z,101013.03
2022-10-17T02:04:30.092Z,101017.13
2022-10-17T02:05:03.918Z,101017.13
2022-10-17T02:05:39.978Z,101014.06
2022-10-17T02:06:12.163Z,101007.00
2022-10-17T02:06:44.149Z,101018.44
2022-10-17T02:07:16.365Z,101009.16
2022-10-17T02:07:48.224Z,101014.81
2022-10-17T02:08:42.002Z,101013.66
2022-10-17T02:09:27.228Z,101006.53
2022-10-17T02:10:02.717Z,101007.69
2022-10-17T02:11:06.861Z,101009.66
2022-10-17T02:11:40.943Z,101007.03
2022-10-17T02:12:44.044Z,101007.69
2022-10-17T02:13:21.908Z,101007.16
2022-10-17T02:13:53.725Z,101008.62
2022-10-17T02:14:47.184Z,101005.22
2022-10-17T02:15:37.659Z,101013.06
2022-10-17T02:16:29.422Z,101016.84
2022-10-17T02:17:28.266Z,101010.28
2022-10-17T02:18:02.964Z,101009.19
2022-10-17T02:18:53.230Z,101007.88
2022-10-17T02:20:05.337Z,101013.47
2022-10-17T02:20:52.151Z,101012.22
2022-10-17T02:22:00.355Z,101012.25
2022-10-17T02:22:46.286Z,101008.69
2022-10-17T02:23:37.009Z,101018.62
2022-10-17T02:24:18.026Z,101018.81
2022-10-17T02:24:55.041Z,101017.28
2022-10-17T02:25:35.003Z,101016.28
2022-10-17T02:26:52.427Z,101020.97
2022-10-17T02:27:24.244Z,101019.34
2022-10-17T02:28:11.855Z,101023.19
2022-10-17T02:28:51.699Z,101019.41
2022-10-17T02:29:31.318Z,101021.50
2022-10-17T02:30:14.182Z,101024.84
2022-10-17T02:30:49.673Z,101018.47
2022-10-17T02:31:30.436Z,101023.53
2022-10-17T02:32:05.335Z,101027.97
2022-10-17T02:32:50.325Z,101027.19
2022-10-17T02:33:31.815Z,101029.91
2022-10-17T02:34:13.242Z,101032.16
2022-10-17T02:34:52.098Z,101025.97
2022-10-17T02:35:28.371Z,101023.84
2022-10-17T02:36:06.248Z,101029.28
2022-10-17T02:36:47.774Z,101026.87
2022-10-17T02:37:24.707Z,101029.97
2022-10-17T02:37:58.348Z,101030.06
2022-10-17T02:38:31.823Z,101024.84
2022-10-17T02:39:06.144Z,101028.91
2022-10-17T02:39:41.118Z,101031.72
2022-10-17T02:40:14.836Z,101027.56
2022-10-17T02:40:48.393Z,101024.84
2022-10-17T02:41:22.958Z,101028.69
2022-10-17T02:42:00.220Z,101023.13
2022-10-17T02:42:33.151Z,101027.25
2022-10-17T02:43:05.469Z,101035.31
2022-10-17T02:43:39.108Z,101029.66
2022-10-17T02:44:11.748Z,101032.78
2022-10-17T02:44:46.923Z,101029.09
2022-10-17T02:45:19.630Z,101031.84
2022-10-17T02:45:52.698Z,101038.00
2022-10-17T02:46:27.380Z,101032.66
2022-10-17T02:47:14.642Z,101036.38
2022-10-17T02:48:04.499Z,101036.38
2022-10-17T02:48:47.308Z,101030.56
2022-10-17T02:49:28.180Z,101033.22
2022-10-17T02:50:00.148Z,101031.47
2022-10-17T02:51:02.082Z,101030.03
2022-10-17T02:52:02.030Z,101036.59
2022-10-17T02:52:37.020Z,101038.34
2022-10-17T02:53:17.608Z,101039.03
2022-10-17T02:54:14.839Z,101034.16
2022-10-17T02:54:54.691Z,101035.09
2022-10-17T02:55:33.484Z,101031.19
2022-10-17T02:56:13.306Z,101035.19
2022-10-17T02:56:56.585Z,101037.78
2022-10-17T02:57:39.471Z,101038.44
2022-10-17T02:58:18.978Z,101035.97
2022-10-17T02:58:56.312Z,101040.47
2022-10-17T02:59:30.830Z,101044.59
2022-10-17T03:00:06.784Z,101045.06
2022-10-17T03:00:40.206Z,101042.00
2022-10-17T03:01:13.758Z,101037.06
2022-10-17T03:01:45.952Z,101044.31
2022-10-17T03:02:18.349Z,101048.78
2022-10-17T03:02:52.771Z,101041.47
2022-10-17T03:03:29.135Z,101038.16
2022-10-17T03:04:07.768Z,101043.66
2022-10-17T03:04:43.866Z,101044.75
2022-10-17T03:05:28.891Z,101044.31
2022-10-17T03:06:00.884Z,101041.84
2022-10-17T03:06:32.804Z,101037.84
2022-10-17T03:07:04.836Z,101034.72
2022-10-17T03:07:36.702Z,101037.50
2022-10-17T03:08:08.579Z,101047.63
2022-10-17T03:08:40.469Z,101036.13
2022-10-17T03:09:12.602Z,101033.00
2022-10-17T03:09:45.755Z,101034.31
2022-10-17T03:10:19.415Z,101042.69
2022-10-17T03:10:52.557Z,101043.56
2022-10-17T03:11:25.598Z,101044.94
2022-10-17T03:11:57.499Z,101044.16
2022-10-17T03:12:29.547Z,101044.16
2022-10-17T03:13:01.483Z,101039.53
2022-10-17T03:13:36.234Z,101050.84
2022-10-17T03:14:10.976Z,101037.78
2022-10-17T03:14:42.885Z,101039.94
2022-10-17T03:15:15.132Z,101051.69
2022-10-17T03:15:47.902Z,101054.03
2022-10-17T03:16:19.818Z,101043.56
2022-10-17T03:16:51.767Z,101044.66
2022-10-17T03:17:24.431Z,101041.47
2022-10-17T03:17:56.346Z,101040.31
2022-10-17T03:18:28.524Z,101042.41
2022-10-17T03:19:00.877Z,101047.44
2022-10-17T03:19:32.866Z,101050.75
2022-10-17T03:20:06.463Z,101046.34
2022-10-17T03:20:38.367Z,101046.81
2022-10-17T03:21:10.554Z,101049.75
2022-10-17T03:21:42.535Z,101050.03
2022-10-17T03:22:14.398Z,101051.63
2022-10-17T03:22:46.850Z,101055.53
2022-10-17T03:23:18.692Z,101049.69
2022-10-17T03:23:50.614Z,101058.66
2022-10-17T03:24:22.862Z,101053.81
2022-10-17T03:24:55.630Z,101048.72
2022-10-17T03:25:28.173Z,101052.25
2022-10-17T03:26:04.473Z,101058.47
2022-10-17T03:26:36.845Z,101056.19
2022-10-17T03:27:08.772Z,101057.25
2022-10-17T03:27:41.862Z,101059.44
2022-10-17T03:28:14.107Z,101060.91
2022-10-17T03:28:47.630Z,101050.75
2022-10-17T03:29:21.632Z,101055.84
2022-10-17T03:29:53.615Z,101053.63
2022-10-17T03:30:25.834Z,101063.00
2022-10-17T03:30:58.358Z,101064.63
2022-10-17T03:31:30.277Z,101059.97
2022-10-17T03:32:02.707Z,101063.31
2022-10-17T03:32:34.775Z,101056.06
2022-10-17T03:33:06.582Z,101066.78
2022-10-17T03:33:38.619Z,101056.63
2022-10-17T03:34:10.482Z,101054.81
2022-10-17T03:34:42.436Z,101068.38
2022-10-17T03:35:15.129Z,101061.06
2022-10-17T03:36:22.895Z,101059.72
2022-10-17T03:36:55.198Z,101062.69
2022-10-17T03:37:28.366Z,101066.91
2022-10-17T03:38:00.641Z,101064.28
2022-10-17T03:38:32.941Z,101055.97
2022-10-17T03:39:04.966Z,101068.25
2022-10-17T03:39:37.076Z,101065.28
2022-10-17T03:40:09.458Z,101059.66
2022-10-17T03:40:41.399Z,101068.72
2022-10-17T03:41:14.557Z,101065.25
2022-10-17T03:41:46.959Z,101067.00
2022-10-17T03:42:19.617Z,101067.41
2022-10-17T03:42:52.043Z,101064.81
2022-10-17T03:43:23.967Z,101072.94
2022-10-17T03:43:55.807Z,101075.25
2022-10-17T03:44:28.201Z,101075.56
2022-10-17T03:45:00.114Z,101072.97
2022-10-17T03:45:32.633Z,101071.72
2022-10-17T03:46:04.951Z,101073.91
2022-10-17T03:46:37.252Z,101066.41
2022-10-17T03:47:11.930Z,101074.88
2022-10-17T03:47:46.069Z,101073.00
2022-10-17T03:48:18.944Z,101076.94
2022-10-17T03:48:50.955Z,101072.28
2022-10-17T03:49:22.805Z,101076.34
2022-10-17T03:49:54.737Z,101072.13
2022-10-17T03:50:26.730Z,101070.87
2022-10-17T03:51:03.489Z,101070.56
2022-10-17T03:51:37.556Z,101080.28
2022-10-17T03:52:13.981Z,101076.47
2022-10-17T03:52:49.593Z,101079.53
2022-10-17T03:53:21.850Z,101080.47
2022-10-17T03:53:53.933Z,101073.66
2022-10-17T03:54:26.765Z,101079.53
2022-10-17T03:54:58.826Z,101084.06
2022-10-17T03:55:31.415Z,101080.28
2022-10-17T03:56:10.229Z,101079.00
2022-10-17T03:56:43.885Z,101083.56
2022-10-17T03:57:16.341Z,101077.25
2022-10-17T03:57:48.658Z,101077.69
2022-10-17T03:58:21.115Z,101076.03
2022-10-17T03:58:55.368Z,101080.41
2022-10-17T03:59:27.425Z,101083.44
2022-10-17T03:59:59.958Z,101075.31
2022-10-17T04:00:32.453Z,101082.44
2022-10-17T04:01:06.466Z,101087.06
2022-10-17T04:01:38.357Z,101083.00
2022-10-17T04:02:10.303Z,101085.91
2022-10-17T04:02:42.452Z,101085.00
2022-10-17T04:03:17.305Z,101089.62
2022-10-17T04:03:54.324Z,101090.47
2022-10-17T04:04:26.383Z,101090.53
2022-10-17T04:04:58.247Z,101080.50
2022-10-17T04:05:30.176Z,101087.28
2022-10-17T04:06:03.398Z,101079.75
2022-10-17T04:06:37.398Z,101085.91
2022-10-17T04:07:09.522Z,101079.84
2022-10-17T04:07:41.945Z,101088.66
2022-10-17T04:08:14.574Z,101089.38
2022-10-17T04:08:50.378Z,101094.31
2022-10-17T04:09:22.693Z,101094.66
2022-10-17T04:09:54.963Z,101096.97
2022-10-17T04:10:26.994Z,101092.09
2022-10-17T04:11:00.363Z,101089.28
2022-10-17T04:11:32.338Z,101095.06
2022-10-17T04:12:04.834Z,101092.09
2022-10-17T04:12:37.794Z,101101.50
2022-10-17T04:13:10.343Z,101095.25
2022-10-17T04:13:43.161Z,101098.16
2022-10-17T04:14:15.065Z,101096.56
2022-10-17T04:14:47.154Z,101091.94
2022-10-17T04:15:19.374Z,101094.44
2022-10-17T04:16:13.951Z,101097.41
2022-10-17T04:16:46.310Z,101101.16
2022-10-17T04:17:18.919Z,101097.87
2022-10-17T04:17:51.024Z,101100.00
2022-10-17T04:18:22.978Z,101095.16
2022-10-17T04:18:56.685Z,101099.88
2022-10-17T04:19:29.322Z,101095.59
2022-10-17T04:20:01.340Z,101097.06
2022-10-17T04:20:35.512Z,101105.69
2022-10-17T04:21:08.205Z,101100.09
2022-10-17T04:21:40.425Z,101095.91
2022-10-17T04:22:12.409Z,101099.31
2022-10-17T04:22:44.584Z,101102.16
2022-10-17T04:23:17.942Z,101104.37
2022-10-17T04:23:57.929Z,101108.63
2022-10-17T04:24:31.653Z,101104.91
2022-10-17T04:25:04.457Z,101105.94
2022-10-17T04:25:37.474Z,101098.00
2022-10-17T04:26:09.407Z,101105.03
2022-10-17T04:26:41.306Z,101105.09
2022-10-17T04:27:13.342Z,101106.81
2022-10-17T04:27:45.872Z,101103.00
2022-10-17T04:28:18.201Z,101102.78
2022-10-17T04:28:51.045Z,101107.59
2022-10-17T04:29:24.050Z,101111.31
2022-10-17T04:29:56.261Z,101105.09
2022-10-17T04:30:28.969Z,101103.94
2022-10-17T04:31:07.314Z,101101.16
2022-10-17T04:31:40.389Z,101103.78
2022-10-17T04:32:12.671Z,101095.94
2022-10-17T04:32:44.799Z,101105.09
2022-10-17T04:33:17.300Z,101106.78
2022-10-17T04:33:50.584Z,101106.78
2022-10-17T04:34:22.475Z,101107.13
2022-10-17T04:34:54.335Z,101106.44
2022-10-17T04:35:26.559Z,101102.03
2022-10-17T04:36:14.138Z,101103.78
2022-10-17T04:36:47.190Z,101106.44
2022-10-17T04:37:19.284Z,101104.66
2022-10-17T04:37:51.402Z,101106.78
2022-10-17T04:38:27.725Z,101107.38
2022-10-17T04:39:05.898Z,101109.28
2022-10-17T04:39:37.876Z,101104.75
2022-10-17T04:40:10.690Z,101104.13
2022-10-17T04:40:42.817Z,101107.66
2022-10-17T04:41:17.517Z,101102.44
2022-10-17T04:41:49.467Z,101107.84
2022-10-17T04:42:21.500Z,101102.63
2022-10-17T04:42:53.614Z,101110.31
2022-10-17T04:43:26.433Z,101115.19
2022-10-17T04:43:58.313Z,101111.91
2022-10-17T04:44:31.442Z,101110.56
2022-10-17T04:45:04.379Z,101108.81
2022-10-17T04:45:36.275Z,101106.72
2022-10-17T04:46:11.022Z,101107.34
2022-10-17T04:46:44.118Z,101111.59
2022-10-17T04:47:15.986Z,101111.91
2022-10-17T04:47:48.014Z,101119.38
2022-10-17T04:48:20.306Z,101106.84
2022-10-17T04:48:54.167Z,101118.94
2022-10-17T04:49:27.071Z,101112.88
2022-10-17T04:50:00.044Z,101114.72
2022-10-17T04:50:31.922Z,101118.63
2022-10-17T04:51:10.880Z,101118.31
2022-10-17T04:51:43.374Z,101112.34
2022-10-17T04:52:15.582Z,101120.19
2022-10-17T04:52:47.483Z,101123.97
2022-10-17T04:53:20.191Z,101121.50
2022-10-17T04:53:52.440Z,101116.25
2022-10-17T04:54:24.357Z,101111.22
2022-10-17T04:54:57.090Z,101121.81
2022-10-17T04:55:28.966Z,101122.50
2022-10-17T04:56:01.745Z,101125.41
2022-10-17T04:56:33.993Z,101126.56
2022-10-17T04:57:05.897Z,101129.47
2022-10-17T04:57:38.023Z,101115.00
2022-10-17T04:58:10.611Z,101117.94
2022-10-17T04:58:43.688Z,101127.88
2022-10-17T04:59:15.929Z,101127.72
2022-10-17T04:59:48.041Z,101121.00
2022-10-17T05:00:20.416Z,101125.88
2022-10-17T05:00:54.281Z,101122.78
2022-10-17T05:01:26.943Z,101123.44
2022-10-17T05:01:58.875Z,101129.16
2022-10-17T05:02:31.043Z,101123.84
2022-10-17T05:03:05.514Z,101130.97
2022-10-17T05:03:37.890Z,101124.78
2022-10-17T05:04:10.026Z,101132.03
2022-10-17T05:04:42.363Z,101125.16
2022-10-17T05:05:14.474Z,101126.50
2022-10-17T05:05:48.185Z,101130.22
2022-10-17T05:06:22.642Z,101128.47
2022-10-17T05:06:56.614Z,101129.88
2022-10-17T05:07:29.714Z,101133.47
2022-10-17T05:08:02.065Z,101129.72
2022-10-17T05:08:34.639Z,101137.38
2022-10-17T05:09:06.792Z,101131.16
2022-10-17T05:09:38.725Z,101135.75
2022-10-17T05:10:11.031Z,101133.19
2022-10-17T05:10:46.411Z,101136.31
2022-10-17T05:11:21.242Z,101140.41
2022-10-17T05:11:53.240Z,101140.38
2022-10-17T05:12:25.787Z,101142.34
2022-10-17T05:12:59.077Z,101138.75
2022-10-17T05:13:31.751Z,101141.03
2022-10-17T05:14:03.669Z,101140.22
2022-10-17T05:14:35.938Z,101142.03
2022-10-17T05:15:08.484Z,101136.84
2022-10-17T05:15:40.739Z,101132.13
2022-10-17T05:16:12.800Z,101138.63
2022-10-17T05:16:44.853Z,101139.47
2022-10-17T05:17:17.221Z,101141.25
2022-10-17T05:17:49.323Z,101146.28
2022-10-17T05:18:21.736Z,101137.47
2022-10-17T05:18:55.710Z,101141.69
2022-10-17T05:19:27.609Z,101143.66
2022-10-17T05:19:59.569Z,101141.19
2022-10-17T05:20:31.958Z,101139.38
2022-10-17T05:21:05.005Z,101148.03
2022-10-17T05:21:38.688Z,101146.09
2022-10-17T05:22:10.872Z,101148.69
2022-10-17T05:22:42.797Z,101153.91
2022-10-17T05:23:15.095Z,101150.81
2022-10-17T05:23:47.549Z,101152.59
2022-10-17T05:24:19.745Z,101154.72
2022-10-17T05:24:53.386Z,101146.25
2022-10-17T05:25:25.228Z,101151.13
2022-10-17T05:25:57.317Z,101146.53
2022-10-17T05:26:29.547Z,101150.09
2022-10-17T05:27:01.618Z,101150.75
2022-10-17T05:27:33.691Z,101148.75
2022-10-17T05:28:06.553Z,101152.44
2022-10-17T05:28:38.527Z,101151.66
2022-10-17T05:29:11.063Z,101156.53
2022-10-17T05:29:43.218Z,101153.91
2022-10-17T05:30:18.210Z,101154.59
2022-10-17T05:30:50.434Z,101159.47
2022-10-17T05:31:22.540Z,101158.13
2022-10-17T05:31:54.720Z,101155.09
2022-10-17T05:32:26.907Z,101167.03
2022-10-17T05:32:59.038Z,101160.03
2022-10-17T05:33:31.714Z,101163.47
2022-10-17T05:34:04.388Z,101162.00
2022-10-17T05:34:36.835Z,101160.03
2022-10-17T05:35:08.811Z,101161.47
2022-10-17T05:35:40.992Z,101170.56
2022-10-17T05:36:12.906Z,101163.69
2022-10-17T05:36:45.076Z,101172.78
2022-10-17T05:37:18.796Z,101165.94
2022-10-17T05:37:50.994Z,101171.06
2022-10-17T05:38:23.609Z,101172.25
2022-10-17T05:38:55.550Z,101173.75
2022-10-17T05:39:27.552Z,101171.00
2022-10-17T05:40:01.231Z,101169.00
2022-10-17T05:40:34.743Z,101166.53
2022-10-17T05:41:07.918Z,101167.66
2022-10-17T05:41:39.810Z,101170.72
2022-10-17T05:42:11.815Z,101169.88
2022-10-17T05:42:48.066Z,101164.91
2022-10-17T05:43:20.214Z,101164.41
2022-10-17T05:43:52.452Z,101171.28
2022-10-17T05:44:25.134Z,101171.72
2022-10-17T05:44:57.649Z,101175.34
2022-10-17T05:45:30.915Z,101177.34
2022-10-17T05:46:06.757Z,101180.62
2022-10-17T05:46:39.301Z,101175.41
2022-10-17T05:47:11.429Z,101180.16
2022-10-17T05:47:43.684Z,101175.03
2022-10-17T05:48:15.711Z,101178.16
2022-10-17T05:48:47.616Z,101179.41
2022-10-17T05:49:32.585Z,101183.13
2022-10-17T05:50:12.525Z,101179.50
2022-10-17T05:50:46.443Z,101182.31
2022-10-17T05:51:18.948Z,101178.56
2022-10-17T05:51:51.720Z,101181.75
2022-10-17T05:52:23.668Z,101182.09
2022-10-17T05:52:56.170Z,101191.12
2022-10-17T05:53:32.123Z,101186.69
2022-10-17T05:54:07.004Z,101191.62
2022-10-17T05:54:40.252Z,101192.94
2022-10-17T05:55:12.240Z,101196.31
2022-10-17T05:55:44.440Z,101197.34
2022-10-17T05:56:16.267Z,101191.12
2022-10-17T05:56:52.875Z,101191.88
2022-10-17T05:57:26.599Z,101187.91
2022-10-17T05:58:00.649Z,101191.94
2022-10-17T05:58:52.320Z,101196.88
2022-10-17T05:59:27.976Z,101191.62
2022-10-17T06:00:00.941Z,101196.84
2022-10-17T06:00:34.240Z,101202.41
2022-10-17T06:01:09.382Z,101197.97
2022-10-17T06:01:44.051Z,101197.53
2022-10-17T06:02:16.061Z,101198.91
2022-10-17T06:02:48.198Z,101195.84
2022-10-17T06:03:20.447Z,101199.09
2022-10-17T06:03:52.980Z,101203.56
2022-10-17T06:04:27.764Z,101200.38
2022-10-17T06:04:59.998Z,101192.72
2022-10-17T06:05:35.606Z,101195.38
2022-10-17T06:06:10.573Z,101197.25
2022-10-17T06:06:43.473Z,101200.56
2022-10-17T06:07:16.214Z,101203.00
2022-10-17T06:07:50.152Z,101202.53
2022-10-17T06:08:22.964Z,101200.00
2022-10-17T06:08:55.440Z,101208.03
2022-10-17T06:09:28.429Z,101211.44
2022-10-17T06:10:01.319Z,101211.25
2022-10-17T06:10:33.451Z,101213.00
2022-10-17T06:11:09.170Z,101214.53
2022-10-17T06:11:42.998Z,101210.75
2022-10-17T06:12:16.137Z,101214.16
2022-10-17T06:12:48.522Z,101211.06
2022-10-17T06:13:20.469Z,101217.28
2022-10-17T06:13:52.800Z,101217.22
2022-10-17T06:14:25.119Z,101215.94
2022-10-17T06:14:57.219Z,101214.84
2022-10-17T06:15:29.061Z,101218.03
2022-10-17T06:16:01.170Z,101216.31
2022-10-17T06:16:33.684Z,101220.72
2022-10-17T06:17:05.893Z,101210.97
2022-10-17T06:17:37.766Z,101222.78
2022-10-17T06:18:11.124Z,101223.41
2022-10-17T06:18:43.300Z,101220.56
2022-10-17T06:19:16.018Z,101222.19
2022-10-17T06:19:47.915Z,101225.41
2022-10-17T06:20:20.192Z,101224.81
2022-10-17T06:20:53.138Z,101222.47
2022-10-17T06:21:27.194Z,101222.53
2022-10-17T06:21:59.392Z,101221.75
2022-10-17T06:22:32.212Z,101220.16
2022-10-17T06:23:06.487Z,101219.16
2022-10-17T06:23:40.036Z,101219.41
2022-10-17T06:24:12.211Z,101219.03
2022-10-17T06:24:44.816Z,101231.72
2022-10-17T06:25:17.116Z,101229.69
2022-10-17T06:25:48.966Z,101229.19
2022-10-17T06:26:21.081Z,101223.19
2022-10-17T06:26:53.370Z,101225.81
2022-10-17T06:27:25.695Z,101230.66
2022-10-17T06:27:57.884Z,101230.78
2022-10-17T06:28:30.086Z,101231.75
2022-10-17T06:29:02.444Z,101229.84
2022-10-17T06:29:34.759Z,101230.31
2022-10-17T06:30:07.148Z,101232.16
2022-10-17T06:30:40.584Z,101231.56
2022-10-17T06:31:16.695Z,101230.22
2022-10-17T06:31:48.592Z,101236.06
2022-10-17T06:32:21.081Z,101231.84
2022-10-17T06:32:53.724Z,101240.37
2022-10-17T06:33:26.239Z,101235.47
2022-10-17T06:33:58.214Z,101240.22
2022-10-17T06:34:30.114Z,101246.63
2022-10-17T06:35:02.093Z,101241.31
2022-10-17T06:35:35.181Z,101248.25
2022-10-17T06:36:08.566Z,101238.25
2022-10-17T06:36:40.529Z,101242.00
2022-10-17T06:37:12.845Z,101241.28
2022-10-17T06:37:45.137Z,101248.81
2022-10-17T06:38:16.994Z,101250.16
2022-10-17T06:38:49.350Z,101244.31
2022-10-17T06:39:21.884Z,101251.16
2022-10-17T06:39:54.557Z,101247.72
2022-10-17T06:40:26.811Z,101249.38
2022-10-17T06:41:14.542Z,101246.87
2022-10-17T06:41:46.389Z,101246.97
2022-10-17T06:42:22.131Z,101255.94
2022-10-17T06:42:54.289Z,101246.16
2022-10-17T06:43:28.192Z,101251.16